Time;durP1;ratioP1;P1;durP2;ratioP2;P2;SDS_P1;SDS_P2;PMS_P1;PMS_P2;Temp;Humidity;BMP_temperature;BMP_pressure;BME280_temperature;BME280_humidity;BME280_pressure;Samples;Min_cycle;Max_cycle;Signal;HPM_P1;HPM_P2
2023/10/12 00:01:23;;;;;;;8.30;4.60;;;;;;;;;;5048089;28;20390;-81
2023/10/12 00:03:54;;;;;;;6.38;4.63;;;;;;;;;;5058442;28;20400;-81
2023/10/12 00:06:20;;;;;;;7.68;4.70;;;;;;;;;;5057748;28;20398;-83
2023/10/12 00:08:48;;;;;;;6.60;4.50;;;;;;;;;;5057229;28;20384;-81
2023/10/12 00:11:19;;;;;;;6.13;4.33;;;;;;;;;;5057944;28;20373;-81
2023/10/12 00:13:47;;;;;;;6.57;4.47;;;;;;;;;;5058439;28;20385;-81
2023/10/12 00:16:18;;;;;;;6.00;4.10;;;;;;;;;;5056591;28;20377;-81
2023/10/12 00:18:45;;;;;;;7.35;4.80;;;;;;;;;;5056360;28;20393;-83
2023/10/12 00:21:17;;;;;;;6.30;4.32;;;;;;;;;;5055088;28;20889;-83
2023/10/12 00:23:47;;;;;;;6.43;4.50;;;;;;;;;;5057390;28;20905;-80
2023/10/12 00:26:13;;;;;;;5.18;4.15;;;;;;;;;;5056960;28;20460;-82
2023/10/12 00:28:39;;;;;;;6.13;4.43;;;;;;;;;;5057228;28;20913;-81
2023/10/12 00:31:12;;;;;;;6.38;4.50;;;;;;;;;;5049529;28;20501;-81
2023/10/12 00:33:38;;;;;;;5.23;4.60;;;;;;;;;;5051520;28;20764;-81
2023/10/12 00:36:11;;;;;;;4.93;4.32;;;;;;;;;;5055587;28;20381;-81
2023/10/12 00:38:38;;;;;;;5.40;4.47;;;;;;;;;;5057004;28;20385;-81
2023/10/12 00:41:04;;;;;;;6.17;4.43;;;;;;;;;;5057426;28;20377;-81
2023/10/12 00:43:36;;;;;;;5.70;4.63;;;;;;;;;;5056586;28;20893;-82
2023/10/12 00:48:48;;;;;;;6.18;4.63;;;;;;;;;;5044131;28;20507;-82
2023/10/12 00:51:16;;;;;;;5.20;4.20;;;;;;;;;;5031018;28;20379;-82
2023/10/12 00:53:55;;;;;;;5.95;4.15;;;;;;;;;;5048817;28;20385;-82
2023/10/12 00:56:22;;;;;;;6.90;4.38;;;;;;;;;;5043748;28;20871;-82
2023/10/12 00:58:48;;;;;;;5.88;4.70;;;;;;;;;;5051971;28;20397;-82
2023/10/12 01:01:14;;;;;;;7.30;4.65;;;;;;;;;;5056152;28;20476;-82
2023/10/12 01:03:45;;;;;;;5.80;4.55;;;;;;;;;;5057618;28;20385;-83
2023/10/12 01:08:46;;;;;;;5.50;4.35;;;;;;;;;;5050872;28;20398;-82
2023/10/12 01:11:51;;;;;;;6.57;4.97;;;;;;;;;;5057386;28;20373;-81
2023/10/12 01:14:09;;;;;;;5.22;4.72;;;;;;;;;;5053212;28;20480;-82
2023/10/12 01:19:23;;;;;;;6.25;4.93;;;;;;;;;;5045846;28;20395;-81
2023/10/12 01:22:11;;;;;;;5.93;4.70;;;;;;;;;;5035718;28;20392;-81
2023/10/12 01:24:43;;;;;;;6.68;4.63;;;;;;;;;;5055714;28;20468;-81
2023/10/12 01:27:12;;;;;;;8.32;4.82;;;;;;;;;;5048487;28;20380;-83
2023/10/12 01:29:38;;;;;;;6.15;4.53;;;;;;;;;;5055540;28;20838;-81
2023/10/12 01:34:37;;;;;;;5.05;4.30;;;;;;;;;;5039265;28;20387;-81
2023/10/12 01:37:22;;;;;;;5.68;4.38;;;;;;;;;;5049993;28;20385;-81
2023/10/12 01:39:57;;;;;;;5.47;4.25;;;;;;;;;;5057064;28;20423;-81
2023/10/12 01:45:18;;;;;;;5.70;4.63;;;;;;;;;;5054850;28;20381;-81
2023/10/12 01:47:44;;;;;;;4.70;4.30;;;;;;;;;;5049139;28;20370;-81
2023/10/12 01:50:11;;;;;;;5.35;4.35;;;;;;;;;;5055706;28;20381;-82
2023/10/12 01:52:37;;;;;;;6.47;4.50;;;;;;;;;;5056723;28;20428;-81
2023/10/12 01:55:16;;;;;;;7.30;4.43;;;;;;;;;;5056043;28;20424;-81
2023/10/12 01:57:54;;;;;;;4.50;4.10;;;;;;;;;;5056200;28;20409;-81
2023/10/12 02:00:28;;;;;;;6.53;4.37;;;;;;;;;;5056543;28;20382;-81
2023/10/12 02:03:31;;;;;;;5.40;4.15;;;;;;;;;;5047954;28;20378;-81
2023/10/12 02:05:51;;;;;;;5.45;4.35;;;;;;;;;;5050171;28;20437;-81
2023/10/12 02:08:20;;;;;;;4.65;4.05;;;;;;;;;;5055522;28;20397;-81
2023/10/12 02:11:06;;;;;;;5.32;4.30;;;;;;;;;;5046518;28;20391;-82
2023/10/12 02:13:34;;;;;;;6.25;4.30;;;;;;;;;;5043946;28;20417;-82
2023/10/12 02:16:03;;;;;;;6.65;4.55;;;;;;;;;;5045454;28;20380;-82
2023/10/12 02:18:34;;;;;;;4.88;4.40;;;;;;;;;;5054053;28;20393;-81
2023/10/12 02:21:09;;;;;;;5.33;4.40;;;;;;;;;;5053827;28;20500;-81
2023/10/12 02:23:39;;;;;;;5.55;4.47;;;;;;;;;;5055159;28;20787;-82
2023/10/12 02:28:53;;;;;;;6.40;4.43;;;;;;;;;;5055357;28;20380;-82
2023/10/12 02:31:23;;;;;;;6.45;4.10;;;;;;;;;;5037017;28;20511;-82
2023/10/12 02:33:49;;;;;;;6.55;4.25;;;;;;;;;;5055567;28;20390;-82
2023/10/12 02:36:18;;;;;;;6.75;4.22;;;;;;;;;;5030882;28;20420;-82
2023/10/12 02:38:44;;;;;;;4.80;4.00;;;;;;;;;;5047864;28;20435;-82
2023/10/12 02:41:13;;;;;;;8.38;4.22;;;;;;;;;;5053473;28;20443;-81
2023/10/12 02:43:50;;;;;;;5.85;4.10;;;;;;;;;;5055480;28;20460;-82
2023/10/12 02:46:22;;;;;;;6.63;4.80;;;;;;;;;;5054022;28;20385;-82
2023/10/12 02:48:50;;;;;;;5.60;4.82;;;;;;;;;;5055285;28;20442;-82
2023/10/12 02:51:17;;;;;;;6.50;4.25;;;;;;;;;;5055165;28;20933;-81
2023/10/12 02:53:44;;;;;;;6.05;4.60;;;;;;;;;;5055713;28;20389;-82
2023/10/12 02:56:11;;;;;;;7.50;4.75;;;;;;;;;;5055035;28;20392;-82
2023/10/12 02:58:37;;;;;;;6.03;4.40;;;;;;;;;;5055590;28;20750;-82
2023/10/12 03:01:12;;;;;;;5.25;4.32;;;;;;;;;;5055004;28;20369;-82
2023/10/12 03:03:39;;;;;;;4.82;4.10;;;;;;;;;;5055278;28;20389;-82
2023/10/12 03:06:11;;;;;;;5.30;4.10;;;;;;;;;;5054609;28;20381;-82
2023/10/12 03:11:25;;;;;;;4.68;4.07;;;;;;;;;;5055075;28;20481;-82
2023/10/12 03:14:00;;;;;;;4.80;4.10;;;;;;;;;;5054890;28;20378;-82
2023/10/12 03:16:29;;;;;;;5.35;4.53;;;;;;;;;;5054580;28;20460;-82
2023/10/12 03:19:00;;;;;;;5.32;4.43;;;;;;;;;;5054975;28;20435;-82
2023/10/12 03:21:33;;;;;;;4.95;4.20;;;;;;;;;;5054604;28;20384;-82
2023/10/12 03:24:02;;;;;;;6.45;4.55;;;;;;;;;;5054864;28;20396;-82
2023/10/12 03:26:29;;;;;;;6.00;4.00;;;;;;;;;;5054564;28;20381;-82
2023/10/12 03:31:53;;;;;;;6.40;4.40;;;;;;;;;;5040935;28;20513;-82
2023/10/12 03:37:03;;;;;;;5.50;3.90;;;;;;;;;;5054956;28;20382;-81
2023/10/12 03:39:31;;;;;;;5.82;4.38;;;;;;;;;;5054075;28;20393;-82
2023/10/12 03:47:15;;;;;;;6.10;4.60;;;;;;;;;;5053621;28;20378;-82
2023/10/12 03:49:57;;;;;;;5.30;4.40;;;;;;;;;;5053922;28;20385;-82
2023/10/12 03:52:29;;;;;;;4.70;4.18;;;;;;;;;;5055181;28;20854;-82
2023/10/12 03:55:24;;;;;;;5.88;4.57;;;;;;;;;;5057570;28;20391;-83
2023/10/12 03:57:50;;;;;;;4.93;4.40;;;;;;;;;;5057083;28;20715;-83
2023/10/12 04:02:47;;;;;;;5.90;4.18;;;;;;;;;;5057343;28;20728;-83
2023/10/12 04:08:12;;;;;;;6.38;4.55;;;;;;;;;;5057808;28;20451;-83
2023/10/12 04:16:10;;;;;;;6.22;4.13;;;;;;;;;;5056856;28;20711;-83
2023/10/12 04:21:17;;;;;;;5.32;4.35;;;;;;;;;;5056993;28;20851;-83
2023/10/12 04:23:49;;;;;;;5.15;4.38;;;;;;;;;;5057159;28;20417;-82
2023/10/12 04:31:21;;;;;;;6.07;4.32;;;;;;;;;;5056660;28;20393;-82
2023/10/12 04:34:04;;;;;;;6.00;4.30;;;;;;;;;;5057315;28;20385;-82
2023/10/12 04:39:37;;;;;;;5.82;4.53;;;;;;;;;;5056804;28;20389;-82
2023/10/12 04:42:45;;;;;;;7.40;4.80;;;;;;;;;;5056454;28;20405;-82
2023/10/12 04:45:23;;;;;;;6.53;4.38;;;;;;;;;;5045957;28;20390;-82
2023/10/12 04:47:55;;;;;;;6.45;4.60;;;;;;;;;;5056778;28;20870;-82
2023/10/12 04:50:28;;;;;;;5.90;4.57;;;;;;;;;;5055919;28;20422;-82
2023/10/12 04:53:09;;;;;;;5.68;4.35;;;;;;;;;;5057225;28;20420;-82
2023/10/12 04:55:35;;;;;;;5.32;4.32;;;;;;;;;;5057607;28;20896;-82
2023/10/12 04:58:56;;;;;;;6.95;4.95;;;;;;;;;;5057087;28;20443;-82
2023/10/12 05:00:55;;;;;;;5.50;4.88;;;;;;;;;;5047368;28;20452;-82
2023/10/12 05:03:26;;;;;;;6.00;4.50;;;;;;;;;;5045882;28;20410;-82
2023/10/12 05:06:03;;;;;;;5.63;4.53;;;;;;;;;;5056235;28;20859;-83
2023/10/12 05:08:31;;;;;;;8.77;4.85;;;;;;;;;;5056466;28;20390;-82
2023/10/12 05:10:57;;;;;;;6.68;4.53;;;;;;;;;;5056757;28;20696;-82
2023/10/12 05:13:24;;;;;;;6.65;4.55;;;;;;;;;;5056426;28;20417;-82
2023/10/12 05:16:02;;;;;;;5.85;4.65;;;;;;;;;;5056378;28;20385;-82
2023/10/12 05:18:31;;;;;;;7.43;4.85;;;;;;;;;;5056694;28;20443;-82
2023/10/12 05:20:57;;;;;;;7.63;4.63;;;;;;;;;;5056535;28;20388;-82
2023/10/12 05:23:23;;;;;;;4.60;4.20;;;;;;;;;;5056683;28;20385;-82
2023/10/12 05:28:18;;;;;;;6.93;5.13;;;;;;;;;;5056707;28;20472;-82
2023/10/12 05:36:42;;;;;;;5.82;4.20;;;;;;;;;;5039192;28;20382;-83
2023/10/12 05:39:14;;;;;;;6.38;4.63;;;;;;;;;;5056631;28;20738;-82
2023/10/12 05:41:40;;;;;;;5.53;4.35;;;;;;;;;;5056246;28;20447;-82
2023/10/12 05:44:12;;;;;;;5.50;4.38;;;;;;;;;;5056839;28;20385;-82
2023/10/12 05:46:40;;;;;;;8.45;5.13;;;;;;;;;;5055574;28;20850;-84
2023/10/12 05:49:12;;;;;;;5.35;4.72;;;;;;;;;;5056471;28;20869;-82
2023/10/12 05:51:38;;;;;;;5.85;4.20;;;;;;;;;;5039966;28;20417;-81
2023/10/12 05:54:07;;;;;;;5.57;4.60;;;;;;;;;;5057084;28;20403;-82
2023/10/12 05:56:34;;;;;;;8.25;4.88;;;;;;;;;;5059989;28;20809;-82
2023/10/12 05:59:00;;;;;;;5.28;4.60;;;;;;;;;;5058899;28;20408;-82
2023/10/12 06:01:32;;;;;;;6.63;4.72;;;;;;;;;;5059602;28;20378;-82
2023/10/12 06:03:59;;;;;;;7.35;4.93;;;;;;;;;;5045060;28;20385;-82
2023/10/12 06:06:25;;;;;;;5.15;4.43;;;;;;;;;;5058919;28;20390;-82
2023/10/12 06:08:52;;;;;;;5.68;4.53;;;;;;;;;;5055626;28;20535;-82
2023/10/12 06:11:19;;;;;;;5.63;4.57;;;;;;;;;;5055846;28;20392;-82
2023/10/12 06:13:51;;;;;;;6.22;4.45;;;;;;;;;;5055610;28;20443;-82
2023/10/12 06:16:17;;;;;;;7.82;4.95;;;;;;;;;;5054626;28;20408;-82
2023/10/12 06:18:47;;;;;;;6.20;4.38;;;;;;;;;;5055567;28;20465;-82
2023/10/12 06:21:19;;;;;;;7.78;4.78;;;;;;;;;;5055401;28;20464;-82
2023/10/12 06:23:48;;;;;;;8.57;5.65;;;;;;;;;;5055693;28;20373;-83
2023/10/12 06:26:28;;;;;;;5.45;4.60;;;;;;;;;;5055614;28;20469;-82
2023/10/12 06:28:55;;;;;;;5.55;4.50;;;;;;;;;;5056052;28;20842;-83
2023/10/12 06:31:21;;;;;;;5.93;4.78;;;;;;;;;;5055531;28;20393;-82
2023/10/12 06:33:49;;;;;;;6.65;4.97;;;;;;;;;;5055130;28;20373;-82
2023/10/12 06:36:22;;;;;;;8.33;5.47;;;;;;;;;;5055181;28;20461;-82
2023/10/12 06:44:50;;;;;;;5.72;4.72;;;;;;;;;;5055120;28;20397;-82
2023/10/12 06:46:49;;;;;;;6.15;4.65;;;;;;;;;;5036286;28;20389;-82
2023/10/12 06:49:29;;;;;;;8.05;5.25;;;;;;;;;;5056020;28;20385;-82
2023/10/12 06:52:09;;;;;;;6.85;5.15;;;;;;;;;;5036275;28;20409;-82
2023/10/12 07:02:29;;;;;;;8.23;6.20;;;;;;;;;;5055475;28;20842;-83
2023/10/12 07:04:55;;;;;;;6.80;5.53;;;;;;;;;;5054853;28;20392;-82
2023/10/12 07:07:41;;;;;;;7.93;5.80;;;;;;;;;;5054562;28;20443;-83
2023/10/12 07:12:41;;;;;;;8.90;5.97;;;;;;;;;;5054894;28;20492;-82
2023/10/12 07:15:11;;;;;;;8.38;5.75;;;;;;;;;;5055297;28;20389;-83
2023/10/12 07:17:37;;;;;;;7.27;5.77;;;;;;;;;;5054887;28;20374;-83
2023/10/12 07:20:25;;;;;;;6.85;6.15;;;;;;;;;;5055192;28;20378;-82
2023/10/12 07:22:51;;;;;;;8.52;6.00;;;;;;;;;;5055904;28;20392;-83
2023/10/12 07:25:23;;;;;;;13.43;6.82;;;;;;;;;;5055209;28;20393;-83
2023/10/12 07:27:54;;;;;;;7.87;6.07;;;;;;;;;;5056850;28;20393;-83
2023/10/12 07:32:55;;;;;;;13.27;7.90;;;;;;;;;;5059589;28;20425;-82
2023/10/12 07:35:31;;;;;;;12.85;8.05;;;;;;;;;;5059109;28;20381;-83
2023/10/12 07:37:58;;;;;;;11.00;7.15;;;;;;;;;;5058909;28;20465;-83
2023/10/12 07:40:24;;;;;;;9.85;7.63;;;;;;;;;;5040704;28;20390;-83
2023/10/12 07:42:50;;;;;;;10.98;7.93;;;;;;;;;;5058048;28;20405;-83
2023/10/12 07:45:17;;;;;;;8.52;6.97;;;;;;;;;;5058306;28;20442;-83
2023/10/12 07:47:46;;;;;;;11.13;7.10;;;;;;;;;;5058274;28;20373;-83
2023/10/12 07:50:25;;;;;;;12.57;7.07;;;;;;;;;;5058968;28;20486;-83
2023/10/12 07:53:05;;;;;;;9.50;6.57;;;;;;;;;;5058586;28;20417;-83
2023/10/12 07:55:41;;;;;;;8.93;6.45;;;;;;;;;;5058297;28;20750;-83
2023/10/12 07:58:12;;;;;;;10.18;7.18;;;;;;;;;;5058847;28;20396;-82
2023/10/12 08:00:41;;;;;;;12.13;6.75;;;;;;;;;;5058637;28;20381;-83
2023/10/12 08:03:18;;;;;;;14.25;10.13;;;;;;;;;;5058617;28;20726;-82
2023/10/12 08:05:46;;;;;;;8.10;6.30;;;;;;;;;;5053841;28;20381;-82
2023/10/12 08:08:33;;;;;;;10.00;6.40;;;;;;;;;;5057877;28;20378;-83
2023/10/12 08:11:00;;;;;;;10.05;6.90;;;;;;;;;;5058291;28;20408;-83
2023/10/12 08:13:27;;;;;;;8.80;5.90;;;;;;;;;;5057854;28;20413;-83
2023/10/12 08:31:55;;;;;;;7.75;5.60;;;;;;;;;;5046177;28;20428;-84
2023/10/12 08:39:38;;;;;;;7.03;4.97;;;;;;;;;;5057028;28;20767;-83
2023/10/12 08:44:59;;;;;;;6.07;4.65;;;;;;;;;;5057544;28;20861;-83
2023/10/12 08:47:31;;;;;;;10.55;5.47;;;;;;;;;;5056770;28;20451;-83
2023/10/12 08:52:30;;;;;;;9.65;6.15;;;;;;;;;;5056976;28;20421;-83
2023/10/12 08:55:04;;;;;;;6.70;4.80;;;;;;;;;;5057366;28;20389;-83
2023/10/12 08:57:42;;;;;;;6.35;4.40;;;;;;;;;;5039747;28;20384;-83
2023/10/12 09:00:25;;;;;;;6.53;4.27;;;;;;;;;;5057199;28;20432;-83
2023/10/12 09:02:54;;;;;;;6.80;4.15;;;;;;;;;;5057640;28;20385;-83
2023/10/12 09:05:25;;;;;;;8.40;4.60;;;;;;;;;;5057433;28;20392;-83
2023/10/12 09:13:36;;;;;;;5.82;4.45;;;;;;;;;;5053399;28;20417;-83
2023/10/12 09:16:04;;;;;;;8.43;4.50;;;;;;;;;;5054744;28;20386;-83
2023/10/12 09:18:43;;;;;;;7.18;4.40;;;;;;;;;;5057900;28;20381;-83
2023/10/12 09:36:45;;;;;;;16.88;11.52;;;;;;;;;;5056771;28;20385;-84
2023/10/12 09:39:15;;;;;;;9.80;4.20;;;;;;;;;;5057099;28;20421;-84
2023/10/12 09:41:41;;;;;;;11.20;5.03;;;;;;;;;;5039366;28;20382;-83
2023/10/12 09:44:11;;;;;;;7.40;4.45;;;;;;;;;;5056362;28;20390;-83
2023/10/12 09:46:46;;;;;;;6.80;4.35;;;;;;;;;;5056983;28;20457;-83
2023/10/12 09:49:25;;;;;;;8.50;4.75;;;;;;;;;;5038863;28;20394;-83
2023/10/12 09:51:54;;;;;;;9.15;4.95;;;;;;;;;;5055815;28;20846;-84
2023/10/12 09:54:33;;;;;;;6.85;4.75;;;;;;;;;;5057065;28;20435;-83
2023/10/12 09:57:03;;;;;;;7.07;4.30;;;;;;;;;;5038915;28;20480;-82
2023/10/12 09:59:31;;;;;;;10.70;5.53;;;;;;;;;;5058942;28;20392;-83
2023/10/12 10:05:26;;;;;;;7.13;4.40;;;;;;;;;;5009838;28;20952;-83
2023/10/12 10:07:57;;;;;;;9.35;4.40;;;;;;;;;;5056435;28;20492;-83
2023/10/12 10:10:30;;;;;;;6.47;4.53;;;;;;;;;;5057318;28;20878;-82
2023/10/12 10:13:00;;;;;;;6.97;4.47;;;;;;;;;;5055009;28;20417;-83
2023/10/12 10:15:36;;;;;;;6.85;4.47;;;;;;;;;;5055408;28;20901;-83
2023/10/12 10:18:04;;;;;;;5.68;4.00;;;;;;;;;;5055728;28;20861;-82
2023/10/12 10:20:46;;;;;;;7.57;3.88;;;;;;;;;;5055977;28;20432;-82
2023/10/12 10:23:19;;;;;;;6.70;4.30;;;;;;;;;;5055623;28;20373;-82
2023/10/12 10:25:54;;;;;;;10.30;4.68;;;;;;;;;;5058340;28;20369;-83
2023/10/12 10:28:24;;;;;;;8.65;4.53;;;;;;;;;;5042526;28;20377;-82
2023/10/12 10:30:52;;;;;;;6.07;3.90;;;;;;;;;;5056108;28;20855;-83
2023/10/12 10:33:22;;;;;;;8.17;4.40;;;;;;;;;;5055959;28;20413;-83
2023/10/12 10:36:01;;;;;;;8.23;4.15;;;;;;;;;;5055918;28;20889;-83
2023/10/12 10:38:32;;;;;;;7.57;4.40;;;;;;;;;;5044921;28;20450;-81
2023/10/12 10:41:08;;;;;;;5.95;3.90;;;;;;;;;;5059559;28;20381;-84
2023/10/12 10:43:37;;;;;;;7.93;4.03;;;;;;;;;;5045411;28;20468;-83
2023/10/12 10:46:06;;;;;;;6.20;3.87;;;;;;;;;;5064299;28;20779;-83
2023/10/12 10:48:34;;;;;;;7.00;3.78;;;;;;;;;;5065352;28;20755;-83
2023/10/12 10:51:04;;;;;;;7.32;4.30;;;;;;;;;;5047094;28;20853;-82
2023/10/12 10:53:31;;;;;;;5.83;4.20;;;;;;;;;;5045599;28;20890;-82
2023/10/12 10:56:00;;;;;;;7.72;3.85;;;;;;;;;;5061952;28;20444;-83
2023/10/12 10:58:26;;;;;;;7.87;4.27;;;;;;;;;;5059988;28;20386;-83
2023/10/12 11:00:58;;;;;;;7.47;4.00;;;;;;;;;;5061335;28;20397;-82
2023/10/12 11:03:26;;;;;;;16.23;4.10;;;;;;;;;;5065672;28;20389;-83
2023/10/12 11:05:53;;;;;;;9.02;4.30;;;;;;;;;;5067685;28;20439;-82
2023/10/12 11:08:26;;;;;;;6.70;4.18;;;;;;;;;;5049148;28;20413;-82
2023/10/12 11:13:38;;;;;;;10.02;4.28;;;;;;;;;;5065150;28;20435;-81
2023/10/12 11:18:51;;;;;;;7.90;3.88;;;;;;;;;;5061801;28;20492;-81
2023/10/12 11:21:18;;;;;;;7.70;3.72;;;;;;;;;;5038626;28;20389;-82
2023/10/12 11:23:44;;;;;;;14.18;4.18;;;;;;;;;;5049978;28;20768;-82
2023/10/12 11:26:21;;;;;;;19.73;4.47;;;;;;;;;;5049647;28;20419;-82
2023/10/12 11:29:01;;;;;;;6.63;3.63;;;;;;;;;;5066506;28;20473;-81
2023/10/12 11:31:30;;;;;;;7.72;3.70;;;;;;;;;;5066299;28;20389;-81
2023/10/12 11:33:57;;;;;;;6.70;3.88;;;;;;;;;;5065868;28;20393;-81
2023/10/12 11:36:23;;;;;;;8.65;3.95;;;;;;;;;;5064243;28;20898;-80
2023/10/12 11:38:59;;;;;;;8.80;4.00;;;;;;;;;;5062933;28;20430;-82
2023/10/12 11:41:25;;;;;;;7.43;3.72;;;;;;;;;;5062358;28;20411;-81
2023/10/12 11:43:53;;;;;;;7.82;3.88;;;;;;;;;;5061766;28;20407;-83
2023/10/12 11:46:19;;;;;;;6.60;4.15;;;;;;;;;;5064227;28;20389;-81
2023/10/12 11:48:45;;;;;;;5.80;3.30;;;;;;;;;;5062762;28;20377;-81
2023/10/12 11:51:11;;;;;;;5.32;3.63;;;;;;;;;;5044217;28;20439;-81
2023/10/12 11:53:41;;;;;;;4.18;3.03;;;;;;;;;;5062175;28;20489;-81
2023/10/12 11:56:14;;;;;;;5.28;3.55;;;;;;;;;;5045118;28;20870;-81
2023/10/12 11:58:50;;;;;;;5.45;3.42;;;;;;;;;;5063001;28;20397;-81
2023/10/12 12:01:18;;;;;;;5.18;3.38;;;;;;;;;;5054672;28;20389;-81
2023/10/12 12:03:45;;;;;;;4.53;3.13;;;;;;;;;;5063953;28;20384;-81
2023/10/12 12:06:21;;;;;;;5.43;3.30;;;;;;;;;;5065199;28;20398;-81
2023/10/12 12:08:48;;;;;;;5.90;3.55;;;;;;;;;;5062563;28;20431;-82
2023/10/12 12:11:19;;;;;;;5.18;3.40;;;;;;;;;;5061115;28;20378;-82
2023/10/12 12:13:47;;;;;;;6.32;3.55;;;;;;;;;;5059323;28;20436;-81
2023/10/12 12:16:20;;;;;;;6.37;3.80;;;;;;;;;;5060736;28;20385;-81
2023/10/12 12:18:49;;;;;;;6.18;3.42;;;;;;;;;;5062132;28;20750;-82
2023/10/12 12:21:17;;;;;;;4.63;3.30;;;;;;;;;;5060994;28;20385;-82
2023/10/12 12:23:47;;;;;;;6.10;3.58;;;;;;;;;;5061612;28;20389;-82
2023/10/12 12:26:16;;;;;;;6.13;3.63;;;;;;;;;;5062032;28;20522;-82
2023/10/12 12:28:49;;;;;;;8.02;3.65;;;;;;;;;;5061187;28;20394;-82
2023/10/12 12:31:15;;;;;;;6.07;3.83;;;;;;;;;;5062161;28;20389;-81
2023/10/12 12:33:45;;;;;;;5.60;3.28;;;;;;;;;;5060523;28;20413;-81
2023/10/12 12:36:21;;;;;;;6.22;3.03;;;;;;;;;;5043620;28;20401;-81
2023/10/12 12:41:34;;;;;;;4.63;3.42;;;;;;;;;;5061152;28;20408;-82
2023/10/12 12:44:00;;;;;;;4.57;3.25;;;;;;;;;;5061048;28;20382;-82
2023/10/12 12:46:29;;;;;;;8.20;3.42;;;;;;;;;;5060521;28;20400;-81
2023/10/12 12:48:55;;;;;;;4.68;3.20;;;;;;;;;;5043195;28;20754;-81
2023/10/12 12:51:22;;;;;;;5.88;3.30;;;;;;;;;;5062137;28;20449;-82
2023/10/12 12:53:49;;;;;;;4.15;3.33;;;;;;;;;;5061103;28;20432;-81
2023/10/12 12:56:16;;;;;;;6.07;3.20;;;;;;;;;;5041036;28;20386;-82
2023/10/12 12:58:46;;;;;;;5.55;3.00;;;;;;;;;;5041877;28;20381;-82
2023/10/12 13:01:14;;;;;;;5.15;3.00;;;;;;;;;;5038389;28;20747;-82
2023/10/12 13:03:40;;;;;;;5.15;2.88;;;;;;;;;;5058451;28;20402;-82
2023/10/12 13:06:07;;;;;;;5.20;3.20;;;;;;;;;;5061083;28;20449;-82
2023/10/12 13:08:33;;;;;;;6.28;3.35;;;;;;;;;;5061343;28;20427;-82
2023/10/12 13:11:00;;;;;;;4.57;3.30;;;;;;;;;;5061435;28;20424;-82
2023/10/12 13:13:26;;;;;;;5.88;3.40;;;;;;;;;;5061718;28;20417;-82
2023/10/12 13:15:52;;;;;;;5.07;3.28;;;;;;;;;;5061479;28;20388;-82
2023/10/12 13:18:18;;;;;;;4.63;3.13;;;;;;;;;;5061614;28;20394;-82
2023/10/12 13:20:48;;;;;;;4.93;3.20;;;;;;;;;;5061062;28;20386;-81
2023/10/12 13:23:17;;;;;;;5.03;3.10;;;;;;;;;;5061023;28;20370;-82
2023/10/12 13:25:43;;;;;;;5.68;3.25;;;;;;;;;;5059944;28;20388;-82
2023/10/12 13:28:10;;;;;;;7.68;3.28;;;;;;;;;;5060257;28;20444;-81
2023/10/12 13:30:39;;;;;;;5.78;3.20;;;;;;;;;;5060602;28;20739;-82
2023/10/12 13:33:06;;;;;;;5.33;2.87;;;;;;;;;;5060270;28;20475;-82
2023/10/12 13:35:41;;;;;;;7.43;4.30;;;;;;;;;;5060725;28;20831;-82
2023/10/12 13:38:11;;;;;;;6.30;3.10;;;;;;;;;;5041105;28;21047;-81
2023/10/12 13:40:38;;;;;;;4.63;3.10;;;;;;;;;;5064208;28;20385;-83
2023/10/12 13:43:26;;;;;;;5.00;2.90;;;;;;;;;;5038576;28;20386;-81
2023/10/12 13:45:54;;;;;;;3.58;3.00;;;;;;;;;;5057365;28;20381;-81
2023/10/12 13:48:28;;;;;;;6.10;3.22;;;;;;;;;;5057751;28;20381;-81
2023/10/12 13:51:04;;;;;;;8.02;3.60;;;;;;;;;;5057451;28;20377;-81
2023/10/12 13:53:34;;;;;;;7.40;3.20;;;;;;;;;;5058673;28;20409;-82
2023/10/12 13:56:01;;;;;;;6.50;3.70;;;;;;;;;;5059088;28;20396;-81
2023/10/12 13:58:27;;;;;;;11.05;3.20;;;;;;;;;;5058739;28;20383;-81
2023/10/12 14:00:54;;;;;;;9.60;3.40;;;;;;;;;;5057943;28;20385;-81
2023/10/12 14:03:28;;;;;;;6.50;3.40;;;;;;;;;;5059573;28;20373;-81
2023/10/12 14:05:54;;;;;;;4.18;3.10;;;;;;;;;;5059532;28;20382;-81
2023/10/12 14:08:20;;;;;;;5.47;3.50;;;;;;;;;;5057872;28;20480;-81
2023/10/12 14:10:46;;;;;;;7.17;3.33;;;;;;;;;;5058495;28;20459;-81
2023/10/12 14:13:13;;;;;;;6.05;3.53;;;;;;;;;;5059209;28;20409;-81
2023/10/12 14:15:43;;;;;;;6.93;3.20;;;;;;;;;;5059885;28;20412;-80
2023/10/12 14:18:11;;;;;;;6.63;3.25;;;;;;;;;;5041276;28;20423;-83
2023/10/12 14:20:38;;;;;;;5.43;3.20;;;;;;;;;;5040926;28;20389;-81
2023/10/12 14:23:07;;;;;;;6.63;3.42;;;;;;;;;;5060129;28;20382;-83
2023/10/12 14:25:38;;;;;;;4.97;3.38;;;;;;;;;;5059861;28;20932;-83
2023/10/12 14:28:05;;;;;;;7.90;3.50;;;;;;;;;;5060238;28;20377;-81
2023/10/12 14:30:31;;;;;;;3.95;3.22;;;;;;;;;;5041670;28;20394;-81
2023/10/12 14:33:02;;;;;;;5.40;3.33;;;;;;;;;;5059756;28;20440;-81
2023/10/12 14:35:28;;;;;;;5.53;3.10;;;;;;;;;;5060126;28;20396;-81
2023/10/12 14:37:57;;;;;;;5.60;3.43;;;;;;;;;;5058771;28;20412;-83
2023/10/12 14:40:33;;;;;;;5.05;3.33;;;;;;;;;;5059394;28;20436;-81
2023/10/12 14:43:11;;;;;;;6.43;3.28;;;;;;;;;;5058993;28;20843;-80
2023/10/12 14:45:37;;;;;;;6.75;3.00;;;;;;;;;;5059937;28;20788;-81
2023/10/12 14:48:10;;;;;;;5.00;3.10;;;;;;;;;;5060798;28;20381;-83
2023/10/12 14:50:38;;;;;;;9.17;3.67;;;;;;;;;;5061258;28;20389;-80
2023/10/12 14:53:04;;;;;;;7.35;3.28;;;;;;;;;;5063345;28;20398;-83
2023/10/12 14:55:30;;;;;;;5.18;3.33;;;;;;;;;;5063359;28;20445;-83
2023/10/12 14:57:56;;;;;;;4.40;3.22;;;;;;;;;;5062999;28;20400;-83
2023/10/12 15:00:22;;;;;;;5.25;3.40;;;;;;;;;;5062336;28;20378;-83
2023/10/12 15:02:53;;;;;;;6.80;3.50;;;;;;;;;;5044613;28;20397;-83
2023/10/12 15:05:20;;;;;;;6.13;3.10;;;;;;;;;;5062785;28;20732;-83
2023/10/12 15:07:49;;;;;;;7.97;3.28;;;;;;;;;;5062876;28;20441;-83
2023/10/12 15:10:18;;;;;;;5.40;3.17;;;;;;;;;;5062631;28;20404;-83
2023/10/12 15:12:48;;;;;;;5.07;2.92;;;;;;;;;;5062123;28;20416;-83
2023/10/12 15:15:18;;;;;;;5.40;3.10;;;;;;;;;;5061953;28;20401;-83
2023/10/12 15:17:45;;;;;;;4.72;2.95;;;;;;;;;;5062547;28;20404;-83
2023/10/12 15:20:18;;;;;;;6.23;3.37;;;;;;;;;;5062708;28;20464;-83
2023/10/12 15:22:44;;;;;;;5.97;3.28;;;;;;;;;;5062002;28;20385;-83
2023/10/12 15:25:12;;;;;;;5.13;3.22;;;;;;;;;;5062414;28;20379;-83
2023/10/12 15:27:37;;;;;;;6.28;3.47;;;;;;;;;;5061900;28;20393;-83
2023/10/12 15:30:04;;;;;;;6.13;3.10;;;;;;;;;;5062340;28;20401;-83
2023/10/12 15:32:30;;;;;;;6.30;3.10;;;;;;;;;;5043502;28;20428;-83
2023/10/12 15:34:57;;;;;;;5.38;3.20;;;;;;;;;;5043389;28;20381;-83
2023/10/12 15:37:24;;;;;;;4.50;3.05;;;;;;;;;;5062334;28;20413;-83
2023/10/12 15:39:53;;;;;;;5.53;3.20;;;;;;;;;;5061535;28;20377;-83
2023/10/12 15:42:19;;;;;;;5.97;3.07;;;;;;;;;;5061545;28;20381;-83
2023/10/12 15:44:48;;;;;;;5.82;2.95;;;;;;;;;;5044461;28;20398;-83
2023/10/12 15:47:16;;;;;;;4.85;3.25;;;;;;;;;;5044081;28;20382;-83
2023/10/12 15:49:42;;;;;;;5.50;3.00;;;;;;;;;;5046730;28;20393;-83
2023/10/12 15:52:08;;;;;;;4.65;3.25;;;;;;;;;;5047493;28;20413;-83
2023/10/12 15:54:34;;;;;;;8.35;3.00;;;;;;;;;;5064866;28;20385;-83
2023/10/12 15:57:00;;;;;;;6.07;3.00;;;;;;;;;;5065066;28;20384;-82
2023/10/12 15:59:27;;;;;;;5.25;2.72;;;;;;;;;;5065361;28;20382;-83
2023/10/12 16:01:53;;;;;;;4.03;2.60;;;;;;;;;;5065094;28;20433;-83
2023/10/12 16:04:19;;;;;;;4.67;3.07;;;;;;;;;;5065438;28;20412;-83
2023/10/12 16:06:46;;;;;;;4.50;2.70;;;;;;;;;;5064648;28;20879;-83
2023/10/12 16:09:20;;;;;;;9.10;3.03;;;;;;;;;;5065743;28;20385;-83
2023/10/12 16:11:46;;;;;;;5.70;3.10;;;;;;;;;;5047309;28;20385;-83
2023/10/12 16:14:12;;;;;;;8.43;2.80;;;;;;;;;;5046471;28;20397;-83
2023/10/12 16:16:38;;;;;;;5.03;2.60;;;;;;;;;;5063892;28;20393;-83
2023/10/12 16:19:04;;;;;;;8.10;3.17;;;;;;;;;;5064435;28;20373;-83
2023/10/12 16:21:30;;;;;;;7.57;3.15;;;;;;;;;;5064805;28;20401;-83
2023/10/12 16:23:56;;;;;;;3.63;2.80;;;;;;;;;;5034519;28;20470;-83
2023/10/12 16:26:22;;;;;;;8.13;3.10;;;;;;;;;;5063923;28;20464;-83
2023/10/12 16:28:51;;;;;;;6.35;3.35;;;;;;;;;;5064951;28;20381;-83
2023/10/12 16:31:17;;;;;;;6.88;2.97;;;;;;;;;;5064517;28;20378;-83
2023/10/12 16:33:43;;;;;;;5.35;3.50;;;;;;;;;;5064427;28;20416;-83
2023/10/12 16:36:11;;;;;;;6.38;3.40;;;;;;;;;;5063786;28;20377;-83
2023/10/12 16:38:37;;;;;;;6.30;3.40;;;;;;;;;;5064346;28;20413;-83
2023/10/12 16:41:03;;;;;;;5.47;3.43;;;;;;;;;;5065004;28;20478;-83
2023/10/12 16:43:33;;;;;;;5.70;3.00;;;;;;;;;;5064077;28;20472;-83
2023/10/12 16:46:00;;;;;;;5.82;2.92;;;;;;;;;;5065234;28;20382;-83
2023/10/12 16:48:28;;;;;;;5.85;3.15;;;;;;;;;;5064773;28;20850;-83
2023/10/12 16:50:55;;;;;;;7.67;3.20;;;;;;;;;;5065250;28;20384;-83
2023/10/12 16:53:21;;;;;;;5.80;3.08;;;;;;;;;;5065248;28;20488;-83
2023/10/12 16:55:48;;;;;;;5.38;3.20;;;;;;;;;;5065359;28;20405;-83
2023/10/12 16:58:17;;;;;;;5.00;3.20;;;;;;;;;;5065057;28;20377;-83
2023/10/12 17:00:44;;;;;;;5.15;3.40;;;;;;;;;;5066878;28;20378;-82
2023/10/12 17:03:10;;;;;;;7.07;3.70;;;;;;;;;;5067196;28;20413;-82
2023/10/12 17:05:36;;;;;;;7.10;4.75;;;;;;;;;;5065066;28;20439;-82
2023/10/12 17:08:02;;;;;;;6.85;4.80;;;;;;;;;;5065478;28;20374;-82
2023/10/12 17:10:29;;;;;;;8.93;5.25;;;;;;;;;;5064215;28;20862;-82
2023/10/12 17:12:56;;;;;;;10.85;6.55;;;;;;;;;;5062726;28;20566;-82
2023/10/12 17:15:22;;;;;;;7.55;6.22;;;;;;;;;;5063541;28;20391;-83
2023/10/12 17:17:50;;;;;;;7.05;5.18;;;;;;;;;;5061743;28;20459;-83